createdAt,value
2019-05-01T00:01:05.325Z,5.40
2019-05-01T00:03:46.055Z,5.30
2019-05-01T00:06:17.752Z,5.30
2019-05-01T00:08:47.740Z,5.30
2019-05-01T00:11:17.891Z,5.20
2019-05-01T00:13:47.913Z,5.20
2019-05-01T00:16:18.307Z,5.20
2019-05-01T00:18:48.436Z,5.20
2019-05-01T00:21:18.391Z,5.20
2019-05-01T00:23:48.355Z,5.20
2019-05-01T00:26:19.380Z,5.10
2019-05-01T00:28:49.409Z,5.10
2019-05-01T00:31:19.639Z,5.20
2019-05-01T00:33:49.762Z,5.20
2019-05-01T00:36:19.784Z,5.20
2019-05-01T00:38:49.739Z,5.20
2019-05-01T00:41:19.696Z,5.20
2019-05-01T00:43:49.666Z,5.20
2019-05-01T00:46:20.276Z,5.20
2019-05-01T00:48:50.259Z,5.20
2019-05-01T00:51:20.255Z,5.10
2019-05-01T00:53:50.176Z,5.10
2019-05-01T00:56:21.771Z,5.20
2019-05-01T00:59:09.249Z,5.20
2019-05-01T01:01:52.872Z,5.20
2019-05-01T01:04:22.899Z,5.20
2019-05-01T01:06:52.851Z,5.10
2019-05-01T01:09:22.916Z,4.90
2019-05-01T01:11:52.904Z,4.90
2019-05-01T01:14:22.862Z,4.90
2019-05-01T01:16:52.817Z,5.00
2019-05-01T01:19:22.776Z,5.10
2019-05-01T01:21:53.268Z,5.10
2019-05-01T01:24:23.332Z,5.10
2019-05-01T01:26:53.456Z,5.20
2019-05-01T01:29:23.412Z,5.20
2019-05-01T01:31:53.387Z,5.30
2019-05-01T01:34:23.342Z,5.20
2019-05-01T01:36:53.296Z,5.30
2019-05-01T01:39:23.416Z,5.40
2019-05-01T01:41:53.630Z,5.50
2019-05-01T01:44:37.098Z,5.50
2019-05-01T01:47:07.321Z,5.40
2019-05-01T01:49:37.712Z,5.50
2019-05-01T01:52:07.832Z,5.60
2019-05-01T01:54:37.887Z,5.60
2019-05-01T01:57:08.007Z,5.70
2019-05-01T01:59:38.056Z,5.70
2019-05-01T02:02:12.671Z,5.80
2019-05-01T02:04:50.470Z,5.90
2019-05-01T02:07:20.668Z,5.90
2019-05-01T02:09:50.888Z,5.90
2019-05-01T02:12:21.016Z,5.90
2019-05-01T02:14:50.997Z,6.00
2019-05-01T02:17:22.024Z,6.10
2019-05-01T02:19:52.004Z,6.00
2019-05-01T02:22:21.959Z,6.00
2019-05-01T02:24:51.939Z,6.10
2019-05-01T02:27:23.672Z,6.10
2019-05-01T02:29:55.999Z,6.10
2019-05-01T02:32:28.504Z,6.20
2019-05-01T02:35:00.194Z,6.20
2019-05-01T02:37:32.466Z,6.20
2019-05-01T02:40:05.815Z,6.20
2019-05-01T02:42:39.836Z,6.30
2019-05-01T02:45:10.153Z,6.40
2019-05-01T02:47:43.011Z,6.40
2019-05-01T02:50:13.931Z,6.50
2019-05-01T02:52:44.622Z,6.50
2019-05-01T02:55:22.788Z,6.50
2019-05-01T02:57:53.782Z,6.60
2019-05-01T03:00:23.928Z,6.60
2019-05-01T03:02:54.529Z,6.60
2019-05-01T03:05:24.648Z,6.60
2019-05-01T03:07:54.835Z,6.70
2019-05-01T03:10:24.879Z,6.70
2019-05-01T03:12:56.172Z,6.80
2019-05-01T03:15:29.287Z,6.80
2019-05-01T03:18:10.954Z,6.80
2019-05-01T03:20:48.117Z,6.90
2019-05-01T03:23:28.879Z,7.10
2019-05-01T03:25:59.096Z,7.20
2019-05-01T03:28:29.228Z,7.40
2019-05-01T03:30:59.206Z,7.50
2019-05-01T03:33:29.329Z,7.60
2019-05-01T03:35:59.449Z,7.70
2019-05-01T03:38:30.267Z,7.70
2019-05-01T03:41:01.097Z,7.70
2019-05-01T03:43:31.788Z,7.70
2019-05-01T03:46:01.904Z,7.70
2019-05-01T03:48:33.669Z,7.70
2019-05-01T03:51:04.657Z,7.70
2019-05-01T03:53:35.157Z,7.70
2019-05-01T03:56:05.109Z,7.80
2019-05-01T03:58:35.400Z,7.80
2019-05-01T04:01:10.346Z,7.80
2019-05-01T04:03:48.777Z,7.80
2019-05-01T04:06:20.836Z,7.90
2019-05-01T04:08:50.958Z,7.90
2019-05-01T04:11:21.642Z,8.00
2019-05-01T04:13:51.752Z,8.00
2019-05-01T04:16:22.452Z,8.00
2019-05-01T04:18:52.568Z,8.00
2019-05-01T04:21:24.236Z,8.00
2019-05-01T04:23:54.193Z,8.00
2019-05-01T04:26:24.139Z,8.00
2019-05-01T04:29:01.895Z,8.10
2019-05-01T04:31:36.944Z,8.10
2019-05-01T04:34:08.977Z,8.20
2019-05-01T04:36:40.704Z,8.20
2019-05-01T04:39:10.833Z,8.30
2019-05-01T04:41:41.057Z,8.30
2019-05-01T04:44:11.440Z,8.30
2019-05-01T04:46:41.468Z,8.30
2019-05-01T04:49:11.764Z,8.30
2019-05-01T04:51:42.265Z,8.40
2019-05-01T04:54:12.707Z,8.30
2019-05-01T04:56:43.498Z,8.30
2019-05-01T04:59:13.632Z,8.30
2019-05-01T05:01:51.984Z,8.30
2019-05-01T05:04:24.136Z,8.30
2019-05-01T05:06:54.632Z,8.30
2019-05-01T05:09:39.381Z,8.30
2019-05-01T05:12:11.242Z,8.40
2019-05-01T05:14:46.203Z,8.40
2019-05-01T05:17:20.964Z,8.40
2019-05-01T05:19:51.096Z,8.50
2019-05-01T05:22:21.211Z,8.50
2019-05-01T05:24:52.026Z,8.60
2019-05-01T05:27:24.044Z,8.70
2019-05-01T05:29:57.109Z,8.80
2019-05-01T05:32:28.982Z,8.80
2019-05-01T05:34:59.979Z,9.00
2019-05-01T05:37:35.620Z,9.10
2019-05-01T05:40:06.412Z,9.20
2019-05-01T05:42:37.155Z,9.30
2019-05-01T05:45:07.747Z,9.40
2019-05-01T05:47:38.161Z,9.50
2019-05-01T05:50:09.477Z,9.50
2019-05-01T05:52:47.395Z,9.50
2019-05-01T05:55:35.634Z,9.50
2019-05-01T05:58:09.888Z,9.60
2019-05-01T06:00:55.117Z,9.60
2019-05-01T06:03:47.863Z,9.60
2019-05-01T06:06:44.316Z,9.70
2019-05-01T06:09:16.287Z,9.80
2019-05-01T06:11:48.214Z,9.80
2019-05-01T06:14:38.251Z,9.80
2019-05-01T06:17:12.615Z,9.90
2019-05-01T06:19:49.596Z,10.00
2019-05-01T06:22:20.746Z,10.00
2019-05-01T06:25:04.710Z,10.00
2019-05-01T06:27:35.226Z,10.00
2019-05-01T06:30:11.192Z,10.10
2019-05-01T06:32:40.192Z,10.10
2019-05-01T06:35:11.387Z,10.10
2019-05-01T06:37:55.906Z,10.10
2019-05-01T06:40:41.432Z,10.10
2019-05-01T06:43:20.246Z,10.10
2019-05-01T06:46:10.923Z,10.10
2019-05-01T06:49:00.335Z,10.20
2019-05-01T06:51:35.795Z,10.20
2019-05-01T06:54:16.402Z,10.20
2019-05-01T06:56:48.046Z,10.20
2019-05-01T06:59:18.667Z,10.30
2019-05-01T07:01:53.271Z,10.40
2019-05-01T07:04:21.504Z,10.40
2019-05-01T07:06:51.526Z,10.40
2019-05-01T07:09:28.196Z,10.50
2019-05-01T07:11:54.551Z,10.50
2019-05-01T07:14:25.017Z,10.60
2019-05-01T07:16:55.103Z,10.60
2019-05-01T07:19:26.790Z,10.70
2019-05-01T07:21:56.814Z,10.70
2019-05-01T07:24:27.952Z,10.80
2019-05-01T07:26:59.822Z,10.90
2019-05-01T07:29:32.876Z,10.90
2019-05-01T07:32:06.272Z,11.00
2019-05-01T07:34:35.091Z,10.90
2019-05-01T07:37:05.182Z,10.90
2019-05-01T07:39:35.436Z,10.90
2019-05-01T07:42:23.252Z,10.90
2019-05-01T07:45:10.244Z,10.90
2019-05-01T07:47:42.074Z,10.90
2019-05-01T07:50:14.201Z,10.90
2019-05-01T07:52:47.620Z,10.90
2019-05-01T07:55:18.731Z,10.90
2019-05-01T07:57:50.175Z,10.90
2019-05-01T08:00:41.062Z,10.90
2019-05-01T08:03:08.473Z,10.90
2019-05-01T08:05:40.803Z,10.90
2019-05-01T08:08:09.980Z,11.00
2019-05-01T08:10:40.114Z,11.00
2019-05-01T08:13:10.072Z,11.10
2019-05-01T08:15:40.395Z,11.20
2019-05-01T08:18:12.000Z,11.20
2019-05-01T08:20:45.725Z,11.30
2019-05-01T08:23:15.446Z,11.40
2019-05-01T08:25:45.422Z,11.50
2019-05-01T08:28:19.635Z,11.60
2019-05-01T08:30:52.773Z,11.70
2019-05-01T08:33:29.977Z,11.90
2019-05-01T08:35:59.943Z,11.90
2019-05-01T08:38:34.160Z,12.10
2019-05-01T08:41:02.251Z,12.30
2019-05-01T08:43:32.567Z,12.30
2019-05-01T08:46:04.174Z,12.30
2019-05-01T08:48:41.716Z,12.40
2019-05-01T08:51:11.997Z,12.30
2019-05-01T08:53:41.923Z,12.40
2019-05-01T08:56:17.055Z,12.30
2019-05-01T08:58:44.911Z,12.40
2019-05-01T09:01:16.370Z,12.50
2019-05-01T09:03:49.638Z,12.50
2019-05-01T09:06:18.454Z,12.60
2019-05-01T09:08:48.551Z,12.50
2019-05-01T09:11:18.914Z,12.60
2019-05-01T09:13:49.122Z,12.70
2019-05-01T09:16:23.401Z,12.70
2019-05-01T09:18:52.023Z,12.60
2019-05-01T09:21:22.002Z,12.50
2019-05-01T09:23:53.265Z,12.40
2019-05-01T09:26:35.383Z,12.30
2019-05-01T09:29:11.086Z,12.20
2019-05-01T09:31:40.859Z,12.20
2019-05-01T09:34:14.087Z,12.20
2019-05-01T09:36:42.610Z,12.30
2019-05-01T09:39:14.957Z,12.40
2019-05-01T09:41:47.420Z,12.50
2019-05-01T09:44:16.740Z,12.60
2019-05-01T09:46:46.812Z,12.70
2019-05-01T09:49:18.327Z,12.90
2019-05-01T09:51:59.585Z,13.10
2019-05-01T09:54:42.943Z,13.10
2019-05-01T09:57:12.764Z,13.30
2019-05-01T09:59:45.603Z,13.40
2019-05-01T10:02:15.633Z,13.30
2019-05-01T10:04:47.168Z,13.30
2019-05-01T10:07:17.152Z,13.20
2019-05-01T10:09:52.198Z,13.10
2019-05-01T10:12:21.272Z,13.00
2019-05-01T10:14:51.239Z,12.90
2019-05-01T10:17:21.228Z,12.90
2019-05-01T10:19:51.187Z,13.00
2019-05-01T10:22:21.162Z,13.10
2019-05-01T10:24:52.096Z,13.30
2019-05-01T10:27:23.717Z,13.40
2019-05-01T10:29:56.926Z,13.60
2019-05-01T10:32:31.278Z,13.80
2019-05-01T10:35:21.195Z,13.90
2019-05-01T10:37:51.155Z,14.10
2019-05-01T10:40:22.427Z,14.20
2019-05-01T10:42:52.498Z,14.30
2019-05-01T10:45:22.464Z,14.20
2019-05-01T10:47:52.460Z,14.30
2019-05-01T10:50:22.511Z,14.30
2019-05-01T10:52:52.572Z,14.30
2019-05-01T10:55:22.531Z,14.40
2019-05-01T10:57:52.504Z,14.50
2019-05-01T11:00:22.706Z,14.90
2019-05-01T11:02:52.780Z,14.80
2019-05-01T11:05:22.808Z,14.70
2019-05-01T11:07:52.960Z,14.70
2019-05-01T11:10:22.920Z,14.70
2019-05-01T11:12:52.913Z,14.90
2019-05-01T11:15:22.872Z,15.20
2019-05-01T11:17:52.840Z,15.20
2019-05-01T11:20:22.801Z,15.10
2019-05-01T11:22:53.074Z,15.10
2019-05-01T11:25:23.343Z,15.10
2019-05-01T11:27:53.258Z,15.00
2019-05-01T11:30:23.293Z,14.90
2019-05-01T11:33:01.136Z,14.90
2019-05-01T11:35:37.260Z,15.00
2019-05-01T11:38:26.530Z,15.10
2019-05-01T11:40:59.101Z,15.10
2019-05-01T11:43:29.084Z,15.20
2019-05-01T11:45:59.048Z,15.40
2019-05-01T11:48:30.129Z,16.00
2019-05-01T11:51:00.599Z,16.30
2019-05-01T11:53:30.578Z,16.30
2019-05-01T11:56:00.538Z,16.20
2019-05-01T11:58:30.547Z,16.30
2019-05-01T12:01:02.182Z,16.60
2019-05-01T12:03:32.435Z,16.60
2019-05-01T12:06:02.389Z,16.90
2019-05-01T12:08:32.445Z,16.80
2019-05-01T12:11:03.382Z,17.00
2019-05-01T12:13:43.290Z,16.70
2019-05-01T12:16:06.737Z,16.70
2019-05-01T12:18:36.708Z,16.80
2019-05-01T12:21:06.731Z,16.90
2019-05-01T12:23:36.695Z,17.20
2019-05-01T12:26:06.774Z,17.10
2019-05-01T12:28:36.753Z,17.00
2019-05-01T12:31:06.706Z,16.80
2019-05-01T12:33:36.663Z,16.90
2019-05-01T12:36:07.563Z,16.70
2019-05-01T12:38:37.515Z,16.70
2019-05-01T12:41:21.121Z,16.50
2019-05-01T12:43:51.091Z,16.60
2019-05-01T12:46:34.737Z,16.50
2019-05-01T12:49:04.940Z,16.50
2019-05-01T12:51:35.479Z,16.50
2019-05-01T12:54:13.303Z,16.60
2019-05-01T12:56:51.145Z,16.60
2019-05-01T12:59:21.131Z,16.60
2019-05-01T13:01:51.098Z,16.60
2019-05-01T13:04:21.085Z,16.50
2019-05-01T13:06:54.229Z,16.50
2019-05-01T13:09:24.272Z,16.30
2019-05-01T13:11:54.439Z,16.40
2019-05-01T13:14:24.434Z,16.40
2019-05-01T13:16:54.391Z,16.30
2019-05-01T13:19:24.393Z,16.40
2019-05-01T13:21:54.369Z,16.30
2019-05-01T13:24:24.355Z,16.40
2019-05-01T13:26:58.594Z,16.40
2019-05-01T13:29:31.296Z,16.40
2019-05-01T13:32:05.855Z,16.40
2019-05-01T13:34:35.835Z,16.30
2019-05-01T13:37:05.875Z,16.40
2019-05-01T13:39:35.947Z,16.40
2019-05-01T13:42:08.964Z,16.30
2019-05-01T13:44:38.763Z,16.40
2019-05-01T13:47:08.727Z,16.50
2019-05-01T13:49:38.730Z,16.30
2019-05-01T13:52:08.770Z,16.50
2019-05-01T13:54:38.831Z,16.50
2019-05-01T13:57:08.858Z,16.60
2019-05-01T13:59:38.839Z,16.50
2019-05-01T14:02:08.892Z,16.40
2019-05-01T14:04:39.387Z,16.30
2019-05-01T14:07:16.423Z,16.20
2019-05-01T14:09:40.999Z,16.10
2019-05-01T14:12:12.039Z,16.00
2019-05-01T14:14:41.990Z,16.10
2019-05-01T14:17:12.120Z,16.10
2019-05-01T14:19:43.724Z,16.00
2019-05-01T14:22:27.420Z,16.10
2019-05-01T14:25:02.012Z,16.10
2019-05-01T14:27:32.039Z,16.00
2019-05-01T14:30:02.005Z,16.10
2019-05-01T14:32:33.565Z,16.20
2019-05-01T14:35:05.332Z,16.20
2019-05-01T14:37:35.418Z,16.30
2019-05-01T14:40:07.086Z,16.30
2019-05-01T14:42:37.229Z,16.20
2019-05-01T14:45:09.722Z,16.00
2019-05-01T14:47:39.697Z,15.90
2019-05-01T14:50:09.988Z,16.00
2019-05-01T14:52:39.951Z,16.00
2019-05-01T14:55:10.243Z,16.00
2019-05-01T14:57:40.211Z,16.00
2019-05-01T15:00:10.431Z,16.10
2019-05-01T15:02:40.397Z,16.20
2019-05-01T15:05:10.704Z,16.20
2019-05-01T15:07:43.597Z,16.30
2019-05-01T15:10:12.465Z,16.50
2019-05-01T15:12:44.287Z,16.60
2019-05-01T15:15:24.872Z,16.80
2019-05-01T15:18:05.507Z,16.80
2019-05-01T15:20:35.539Z,16.90
2019-05-01T15:23:05.502Z,16.90
2019-05-01T15:25:35.457Z,16.80
2019-05-01T15:28:05.555Z,16.90
2019-05-01T15:30:35.520Z,17.00
2019-05-01T15:33:05.480Z,17.20
2019-05-01T15:35:35.436Z,17.20
2019-05-01T15:38:05.399Z,17.60
2019-05-01T15:40:53.396Z,18.10
2019-05-01T15:43:25.000Z,18.30
2019-05-01T15:45:54.959Z,18.30
2019-05-01T15:48:24.919Z,18.60
2019-05-01T15:50:54.947Z,18.50
2019-05-01T15:53:24.971Z,18.60
2019-05-01T15:55:54.931Z,18.60
2019-05-01T15:58:24.887Z,18.70
2019-05-01T16:00:54.853Z,18.90
2019-05-01T16:03:24.840Z,18.90
2019-05-01T16:05:54.804Z,19.30
2019-05-01T16:08:24.956Z,19.10
2019-05-01T16:10:59.513Z,19.10
2019-05-01T16:13:29.570Z,19.20
2019-05-01T16:15:59.522Z,19.20
2019-05-01T16:18:29.508Z,19.20
2019-05-01T16:20:59.467Z,19.40
2019-05-01T16:23:29.446Z,19.30
2019-05-01T16:25:59.398Z,19.30
2019-05-01T16:28:29.387Z,19.40
2019-05-01T16:30:59.346Z,19.60
2019-05-01T16:33:29.419Z,19.70
2019-05-01T16:35:59.407Z,19.70
2019-05-01T16:38:47.180Z,19.80
2019-05-01T16:41:17.141Z,19.70
2019-05-01T16:43:47.127Z,19.60
2019-05-01T16:46:17.083Z,19.40
2019-05-01T16:48:47.071Z,19.00
2019-05-01T16:51:17.038Z,19.10
2019-05-01T16:53:47.015Z,19.10
2019-05-01T16:56:17.952Z,19.10
2019-05-01T16:58:48.842Z,18.90
2019-05-01T17:01:20.446Z,18.90
2019-05-01T17:03:52.063Z,18.70
2019-05-01T17:06:32.903Z,18.60
2019-05-01T17:09:22.639Z,18.50
2019-05-01T17:11:52.699Z,18.40
2019-05-01T17:14:22.751Z,18.20
2019-05-01T17:16:52.702Z,18.00
2019-05-01T17:19:22.690Z,17.70
2019-05-01T17:21:52.656Z,17.60
2019-05-01T17:24:22.649Z,17.40
2019-05-01T17:26:52.603Z,17.20
2019-05-01T17:29:22.760Z,17.20
2019-05-01T17:31:52.775Z,17.00
2019-05-01T17:34:25.579Z,16.80
2019-05-01T17:36:54.417Z,16.80
2019-05-01T17:39:24.567Z,16.60
2019-05-01T17:41:57.576Z,16.50
2019-05-01T17:44:26.660Z,16.50
2019-05-01T17:46:56.754Z,16.30
2019-05-01T17:49:26.792Z,16.20
2019-05-01T17:51:56.766Z,16.10
2019-05-01T17:54:26.827Z,16.10
2019-05-01T17:56:56.807Z,16.00
2019-05-01T17:59:26.838Z,15.90
2019-05-01T18:01:58.436Z,15.80
2019-05-01T18:04:33.028Z,15.80
2019-05-01T18:07:03.027Z,15.60
2019-05-01T18:09:34.062Z,15.50
2019-05-01T18:12:04.296Z,15.50
2019-05-01T18:14:34.251Z,15.30
2019-05-01T18:17:04.460Z,15.30
2019-05-01T18:19:34.415Z,15.20
2019-05-01T18:22:06.379Z,15.10
2019-05-01T18:24:40.795Z,15.10
2019-05-01T18:27:28.866Z,15.00
2019-05-01T18:30:00.608Z,14.90
2019-05-01T18:32:32.392Z,14.80
2019-05-01T18:35:02.687Z,14.80
2019-05-01T18:37:37.662Z,14.70
2019-05-01T18:40:11.304Z,14.70
2019-05-01T18:42:41.833Z,14.60
2019-05-01T18:45:20.063Z,14.50
2019-05-01T18:47:47.498Z,14.40
2019-05-01T18:50:17.451Z,14.40
2019-05-01T18:52:47.412Z,14.30
2019-05-01T18:55:17.371Z,14.30
2019-05-01T18:57:47.337Z,14.20
2019-05-01T19:00:17.468Z,14.20
2019-05-01T19:02:47.494Z,14.10
2019-05-01T19:05:17.479Z,14.10
2019-05-01T19:07:47.445Z,14.00
2019-05-01T19:10:17.432Z,14.00
2019-05-01T19:12:47.384Z,13.90
2019-05-01T19:15:18.504Z,13.90
2019-05-01T19:17:48.488Z,13.90
2019-05-01T19:20:18.468Z,13.80
2019-05-01T19:22:48.428Z,13.80
2019-05-01T19:25:18.418Z,13.70
2019-05-01T19:27:48.553Z,13.70
2019-05-01T19:30:19.629Z,13.60
2019-05-01T19:32:49.661Z,13.60
2019-05-01T19:35:23.592Z,13.50
2019-05-01T19:37:52.861Z,13.50
2019-05-01T19:40:25.171Z,13.40
2019-05-01T19:42:58.149Z,13.40
2019-05-01T19:45:26.301Z,13.30
2019-05-01T19:47:56.366Z,13.20
2019-05-01T19:50:26.315Z,13.20
2019-05-01T19:52:56.397Z,13.20
2019-05-01T19:55:26.684Z,13.10
2019-05-01T19:57:56.644Z,13.10
2019-05-01T20:00:49.337Z,13.00
2019-05-01T20:03:21.076Z,13.00
2019-05-01T20:05:51.432Z,13.00
2019-05-01T20:08:21.605Z,12.90
2019-05-01T20:10:51.586Z,12.90
2019-05-01T20:13:21.635Z,12.90
2019-05-01T20:15:51.700Z,12.80
2019-05-01T20:18:22.823Z,12.80
2019-05-01T20:20:52.807Z,12.80
2019-05-01T20:23:26.144Z,12.80
2019-05-01T20:25:55.855Z,12.80
2019-05-01T20:28:26.023Z,12.70
2019-05-01T20:30:56.031Z,12.70
2019-05-01T20:33:25.995Z,12.70
2019-05-01T20:36:00.393Z,12.70
2019-05-01T20:38:27.727Z,12.60
2019-05-01T20:40:57.760Z,12.50
2019-05-01T20:43:27.723Z,12.50
2019-05-01T20:45:57.699Z,12.50
2019-05-01T20:48:27.744Z,12.50
2019-05-01T20:50:57.703Z,12.50
2019-05-01T20:53:27.682Z,12.40
2019-05-01T20:55:59.292Z,12.40
2019-05-01T20:58:29.275Z,12.40
2019-05-01T21:01:00.877Z,12.40
2019-05-01T21:03:31.374Z,12.40
2019-05-01T21:06:21.122Z,12.40
2019-05-01T21:08:55.387Z,12.30
2019-05-01T21:11:29.969Z,12.30
2019-05-01T21:14:15.593Z,12.30
2019-05-01T21:16:32.998Z,12.30
2019-05-01T21:19:04.237Z,12.30
2019-05-01T21:21:34.435Z,12.30
2019-05-01T21:24:04.592Z,12.30
2019-05-01T21:26:34.541Z,12.30
2019-05-01T21:29:04.580Z,12.20
2019-05-01T21:31:34.540Z,12.20
2019-05-01T21:34:04.671Z,12.20
2019-05-01T21:36:34.623Z,12.20
2019-05-01T21:39:06.222Z,12.10
2019-05-01T21:41:36.654Z,12.00
2019-05-01T21:44:06.895Z,12.00
2019-05-01T21:46:39.186Z,11.90
2019-05-01T21:49:08.494Z,12.00
2019-05-01T21:51:42.300Z,11.90
2019-05-01T21:54:10.126Z,11.90
2019-05-01T21:56:41.468Z,11.90
2019-05-01T21:59:11.670Z,11.80
2019-05-01T22:01:41.866Z,11.80
2019-05-01T22:04:11.827Z,11.80
2019-05-01T22:06:41.799Z,11.80
2019-05-01T22:09:15.288Z,11.70
2019-05-01T22:11:45.827Z,11.70
2019-05-01T22:14:36.099Z,11.70
2019-05-01T22:17:07.292Z,11.60
2019-05-01T22:19:37.528Z,11.70
2019-05-01T22:22:09.127Z,11.60
2019-05-01T22:24:43.477Z,11.60
2019-05-01T22:27:33.182Z,11.60
2019-05-01T22:30:12.748Z,11.60
2019-05-01T22:32:44.427Z,11.60
2019-05-01T22:35:22.327Z,11.60
2019-05-01T22:37:52.401Z,11.60
2019-05-01T22:40:24.171Z,11.60
2019-05-01T22:42:54.166Z,11.60
2019-05-01T22:45:25.201Z,11.60
2019-05-01T22:47:55.164Z,11.50
2019-05-01T22:50:25.123Z,11.50
2019-05-01T22:52:55.083Z,11.50
2019-05-01T22:55:25.689Z,11.50
2019-05-01T22:57:56.707Z,11.50
2019-05-01T23:00:29.855Z,11.50
2019-05-01T23:03:05.419Z,11.40
2019-05-01T23:05:33.116Z,11.40
2019-05-01T23:08:03.140Z,11.40
2019-05-01T23:10:33.329Z,11.40
2019-05-01T23:13:05.104Z,11.30
2019-05-01T23:15:35.139Z,11.30
2019-05-01T23:18:05.246Z,11.20
2019-05-01T23:20:39.052Z,11.20
2019-05-01T23:23:06.851Z,11.10
2019-05-01T23:25:41.247Z,11.00
2019-05-01T23:28:08.600Z,10.90
2019-05-01T23:30:38.564Z,10.80
2019-05-01T23:33:08.601Z,10.80
2019-05-01T23:35:38.643Z,10.70
2019-05-01T23:38:08.680Z,10.70
2019-05-01T23:40:38.686Z,10.70
2019-05-01T23:43:08.619Z,10.70
2019-05-01T23:45:38.700Z,10.70
2019-05-01T23:48:08.664Z,10.70
2019-05-01T23:50:38.643Z,10.70
2019-05-01T23:53:09.067Z,10.80
2019-05-01T23:55:40.200Z,10.80
2019-05-01T23:58:10.150Z,10.80
